createdAt,value
2023-04-22T00:00:41.246Z,99.90
2023-04-22T00:03:10.618Z,99.90
2023-04-22T00:05:42.385Z,99.90
2023-04-22T00:08:11.830Z,99.90
2023-04-22T00:10:41.702Z,99.90
2023-04-22T00:13:10.835Z,99.90
2023-04-22T00:15:40.789Z,99.90
2023-04-22T00:18:14.759Z,99.90
2023-04-22T00:20:46.987Z,99.90
2023-04-22T00:23:16.654Z,99.90
2023-04-22T00:25:45.399Z,99.90
2023-04-22T00:28:14.284Z,99.90
2023-04-22T00:30:43.520Z,99.90
2023-04-22T00:33:12.892Z,99.90
2023-04-22T00:35:41.791Z,99.90
2023-04-22T00:38:12.413Z,99.90
2023-04-22T00:40:41.513Z,99.90
2023-04-22T00:43:10.812Z,99.90
2023-04-22T00:45:41.114Z,99.90
2023-04-22T00:48:11.011Z,99.90
2023-04-22T00:50:40.331Z,99.90
2023-04-22T00:53:09.640Z,99.90
2023-04-22T00:55:40.225Z,99.90
2023-04-22T00:58:10.092Z,99.90
2023-04-22T01:00:39.406Z,99.90
2023-04-22T01:03:09.177Z,99.90
2023-04-22T01:05:39.524Z,99.90
2023-04-22T01:08:08.620Z,99.90
2023-04-22T01:10:39.805Z,99.90
2023-04-22T01:13:08.746Z,99.90
2023-04-22T01:15:37.838Z,99.90
2023-04-22T01:18:07.468Z,99.90
2023-04-22T01:20:36.404Z,99.90
2023-04-22T01:23:06.024Z,99.90
2023-04-22T01:25:36.866Z,99.90
2023-04-22T01:28:06.740Z,99.90
2023-04-22T01:31:05.053Z,99.90
2023-04-22T01:33:34.156Z,99.90
2023-04-22T01:36:02.891Z,99.90
2023-04-22T01:38:34.035Z,99.90
2023-04-22T01:41:04.874Z,99.90
2023-04-22T01:43:34.519Z,99.90
2023-04-22T01:46:06.607Z,99.90
2023-04-22T01:48:37.928Z,99.90
2023-04-22T01:51:07.653Z,99.90
2023-04-22T01:53:38.093Z,99.90
2023-04-22T01:56:09.468Z,99.90
2023-04-22T01:58:41.268Z,99.90
2023-04-22T02:01:12.032Z,99.90
2023-04-22T02:03:42.243Z,99.90
2023-04-22T02:06:13.652Z,99.90
2023-04-22T02:08:42.706Z,99.90
2023-04-22T02:11:13.330Z,99.90
2023-04-22T02:13:43.707Z,99.90
2023-04-22T02:16:13.099Z,99.90
2023-04-22T02:18:42.793Z,99.90
2023-04-22T02:21:12.143Z,99.90
2023-04-22T02:23:43.873Z,99.90
2023-04-22T02:26:14.806Z,99.90
2023-04-22T02:28:44.681Z,99.90
2023-04-22T02:31:13.615Z,99.90
2023-04-22T02:33:43.132Z,99.90
2023-04-22T02:36:12.689Z,99.90
2023-04-22T02:38:41.995Z,99.90
2023-04-22T02:41:11.301Z,99.90
2023-04-22T02:43:46.473Z,99.90
2023-04-22T02:46:16.880Z,99.90
2023-04-22T02:48:46.051Z,99.90
2023-04-22T02:51:14.877Z,99.90
2023-04-22T02:53:44.178Z,99.90
2023-04-22T02:56:13.081Z,99.90
2023-04-22T02:58:44.116Z,99.90
2023-04-22T03:01:13.637Z,99.90
2023-04-22T03:03:43.398Z,99.90
2023-04-22T03:06:16.676Z,99.90
2023-04-22T03:08:46.168Z,99.90
2023-04-22T03:11:15.847Z,99.90
2023-04-22T03:13:46.561Z,99.90
2023-04-22T03:16:16.616Z,99.90
2023-04-22T03:18:46.212Z,99.90
2023-04-22T03:21:15.404Z,99.90
2023-04-22T03:23:45.062Z,99.90
2023-04-22T03:26:14.944Z,99.90
2023-04-22T03:28:46.442Z,99.90
2023-04-22T03:31:16.928Z,99.90
2023-04-22T03:33:47.495Z,99.90
2023-04-22T03:36:25.753Z,99.90
2023-04-22T03:38:54.704Z,99.90
2023-04-22T03:41:26.767Z,99.90
2023-04-22T03:43:58.904Z,99.90
2023-04-22T03:46:29.766Z,99.90
2023-04-22T03:49:07.668Z,99.90
2023-04-22T03:51:38.154Z,99.90
2023-04-22T03:54:12.511Z,99.90
2023-04-22T03:56:48.473Z,99.90
2023-04-22T03:59:19.785Z,99.90
2023-04-22T04:01:50.276Z,99.90
2023-04-22T04:04:23.899Z,99.90
2023-04-22T04:06:58.332Z,99.90
2023-04-22T04:09:31.613Z,99.90
2023-04-22T04:12:02.039Z,99.90
2023-04-22T04:14:37.440Z,99.90
2023-04-22T04:17:09.887Z,99.90
2023-04-22T04:19:40.156Z,99.90
2023-04-22T04:22:10.392Z,99.90
2023-04-22T04:24:47.679Z,99.90
2023-04-22T04:27:27.081Z,99.90
2023-04-22T04:30:01.152Z,99.90
2023-04-22T04:32:43.302Z,99.90
2023-04-22T04:35:15.661Z,99.90
2023-04-22T04:37:51.176Z,99.90
2023-04-22T04:40:22.265Z,99.90
2023-04-22T04:43:08.888Z,99.90
2023-04-22T04:45:49.088Z,99.90
2023-04-22T04:48:25.240Z,99.90
2023-04-22T04:50:59.555Z,99.90
2023-04-22T04:53:31.988Z,99.90
2023-04-22T04:56:01.075Z,99.90
2023-04-22T04:58:32.229Z,99.90
2023-04-22T05:01:23.066Z,99.90
2023-04-22T05:03:53.730Z,99.90
2023-04-22T05:06:24.066Z,99.90
2023-04-22T05:09:01.311Z,99.90
2023-04-22T05:11:31.203Z,99.90
2023-04-22T05:14:02.867Z,99.90
2023-04-22T05:16:38.196Z,99.90
2023-04-22T05:19:07.323Z,99.90
2023-04-22T05:21:37.536Z,99.90
2023-04-22T05:24:06.939Z,99.90
2023-04-22T05:26:36.233Z,99.90
2023-04-22T05:29:14.044Z,99.90
2023-04-22T05:31:45.168Z,99.90
2023-04-22T05:34:14.333Z,99.90
2023-04-22T05:36:43.927Z,99.90
2023-04-22T05:39:13.338Z,99.90
2023-04-22T05:41:44.786Z,99.90
2023-04-22T05:44:15.697Z,99.90
2023-04-22T05:46:46.899Z,99.90
2023-04-22T05:49:16.092Z,99.90
2023-04-22T05:52:04.313Z,99.90
2023-04-22T05:54:44.252Z,99.90
2023-04-22T05:57:13.585Z,99.90
2023-04-22T05:59:46.647Z,99.90
2023-04-22T06:02:18.201Z,99.90
2023-04-22T06:04:48.437Z,99.90
2023-04-22T06:07:18.006Z,99.90
2023-04-22T06:09:47.461Z,99.90
2023-04-22T06:12:17.737Z,99.90
2023-04-22T06:14:47.110Z,99.90
2023-04-22T06:17:18.098Z,99.90
2023-04-22T06:19:47.421Z,99.90
2023-04-22T06:22:16.537Z,99.90
2023-04-22T06:24:48.487Z,99.90
2023-04-22T06:27:18.907Z,99.90
2023-04-22T06:29:48.248Z,99.90
2023-04-22T06:32:19.079Z,99.90
2023-04-22T06:34:48.434Z,99.90
2023-04-22T06:37:17.889Z,99.90
2023-04-22T06:39:48.527Z,99.90
2023-04-22T06:42:57.527Z,99.90
2023-04-22T06:45:55.511Z,99.90
2023-04-22T06:48:44.853Z,99.90
2023-04-22T06:51:31.067Z,99.90
2023-04-22T06:54:00.557Z,99.90
2023-04-22T06:56:29.967Z,99.90
2023-04-22T06:58:59.492Z,99.90
2023-04-22T07:01:28.952Z,99.90
2023-04-22T07:04:00.393Z,99.90
2023-04-22T07:06:30.076Z,99.90
2023-04-22T07:08:59.274Z,99.90
2023-04-22T07:11:31.692Z,99.90
2023-04-22T07:14:05.500Z,99.90
2023-04-22T07:16:34.425Z,99.90
2023-04-22T07:19:06.250Z,99.90
2023-04-22T07:21:35.407Z,99.90
2023-04-22T07:24:04.749Z,99.90
2023-04-22T07:26:34.833Z,99.90
2023-04-22T07:29:03.952Z,99.90
2023-04-22T07:31:32.633Z,99.90
2023-04-22T07:34:01.492Z,99.90
2023-04-22T07:36:32.867Z,99.90
2023-04-22T07:39:01.749Z,99.90
2023-04-22T07:41:30.271Z,99.90
2023-04-22T07:43:59.403Z,96.70
2023-04-22T07:46:28.298Z,96.50
2023-04-22T07:48:57.107Z,97.30
2023-04-22T07:51:26.019Z,99.90
2023-04-22T07:53:56.092Z,97.80
2023-04-22T07:56:24.634Z,95.90
2023-04-22T07:58:53.321Z,97.00
2023-04-22T08:01:21.915Z,95.00
2023-04-22T08:03:50.741Z,95.10
2023-04-22T08:06:19.874Z,94.50
2023-04-22T08:08:48.757Z,92.10
2023-04-22T08:11:18.600Z,88.80
2023-04-22T08:13:47.244Z,82.30
2023-04-22T08:16:15.907Z,84.40
2023-04-22T08:18:44.708Z,83.60
2023-04-22T08:21:13.381Z,85.60
2023-04-22T08:23:41.998Z,82.40
2023-04-22T08:26:15.321Z,89.20
2023-04-22T08:28:45.364Z,80.50
2023-04-22T08:31:15.010Z,84.90
2023-04-22T08:33:43.825Z,84.10
2023-04-22T08:36:12.652Z,81.50
2023-04-22T08:38:41.378Z,79.10
2023-04-22T08:41:12.110Z,75.10
2023-04-22T08:43:41.373Z,80.20
2023-04-22T08:50:12.779Z,75.70
2023-04-22T08:52:43.684Z,78.70
2023-04-22T08:55:13.084Z,77.90
2023-04-22T08:57:44.975Z,69.50
2023-04-22T09:00:15.721Z,75.00
2023-04-22T09:02:47.748Z,75.50
2023-04-22T09:05:18.219Z,70.90
2023-04-22T09:07:47.361Z,61.40
2023-04-22T09:10:16.459Z,54.40
2023-04-22T09:12:46.233Z,58.80
2023-04-22T09:15:15.235Z,55.70
2023-04-22T09:17:44.658Z,50.10
2023-04-22T09:20:16.318Z,46.40
2023-04-22T09:22:48.347Z,52.00
2023-04-22T09:25:18.680Z,50.80
2023-04-22T09:27:51.284Z,55.40
2023-04-22T09:30:25.500Z,58.50
2023-04-22T09:32:56.518Z,48.50
2023-04-22T09:35:28.721Z,46.60
2023-04-22T09:38:00.360Z,52.40
2023-04-22T09:40:30.754Z,44.10
2023-04-22T09:43:02.472Z,45.00
2023-04-22T09:45:33.076Z,47.40
2023-04-22T09:48:05.089Z,45.40
2023-04-22T09:50:33.841Z,48.20
2023-04-22T09:53:06.791Z,47.80
2023-04-22T09:55:38.051Z,43.70
2023-04-22T09:58:10.196Z,40.70
2023-04-22T10:00:43.350Z,41.00
2023-04-22T10:03:14.162Z,39.60
2023-04-22T10:05:45.354Z,43.60
2023-04-22T10:08:18.843Z,42.90
2023-04-22T10:10:48.888Z,45.10
2023-04-22T10:13:20.187Z,44.40
2023-04-22T10:15:53.822Z,44.40
2023-04-22T10:18:25.952Z,43.60
2023-04-22T10:20:56.404Z,38.10
2023-04-22T10:23:27.738Z,41.10
2023-04-22T10:25:58.462Z,37.50
2023-04-22T10:28:31.173Z,39.40
2023-04-22T10:31:00.837Z,38.60
2023-04-22T10:33:41.995Z,40.50
2023-04-22T10:36:12.872Z,36.60
2023-04-22T10:39:04.342Z,38.80
2023-04-22T10:41:36.597Z,44.80
2023-04-22T10:44:09.477Z,41.30
2023-04-22T10:46:57.866Z,41.00
2023-04-22T10:49:27.852Z,35.50
2023-04-22T10:52:01.825Z,36.60
2023-04-22T10:55:04.180Z,37.00
2023-04-22T10:57:38.442Z,36.20
2023-04-22T11:00:53.167Z,35.50
2023-04-22T11:03:30.292Z,35.30
2023-04-22T11:06:20.357Z,34.50
2023-04-22T11:08:52.443Z,31.60
2023-04-22T11:11:23.197Z,33.60
2023-04-22T11:13:53.296Z,36.30
2023-04-22T11:16:24.432Z,35.30
2023-04-22T11:18:54.187Z,37.10
2023-04-22T11:21:24.481Z,37.20
2023-04-22T11:23:54.581Z,36.70
2023-04-22T11:26:38.233Z,40.30
2023-04-22T11:29:07.727Z,38.10
2023-04-22T11:31:38.249Z,39.20
2023-04-22T11:34:10.453Z,40.10
2023-04-22T11:36:40.187Z,38.70
2023-04-22T11:39:15.641Z,35.50
2023-04-22T11:41:46.934Z,35.00
2023-04-22T11:44:16.591Z,33.10
2023-04-22T11:46:46.853Z,34.00
2023-04-22T11:49:21.291Z,36.20
2023-04-22T11:51:55.788Z,36.10
2023-04-22T11:54:33.821Z,36.00
2023-04-22T11:57:08.490Z,38.90
2023-04-22T11:59:38.059Z,38.40
2023-04-22T12:02:08.260Z,35.30
2023-04-22T12:04:41.423Z,33.90
2023-04-22T12:07:10.864Z,32.90
2023-04-22T12:09:41.721Z,33.20
2023-04-22T12:12:12.553Z,32.50
2023-04-22T12:14:41.627Z,34.00
2023-04-22T12:17:12.813Z,34.50
2023-04-22T12:19:42.676Z,35.70
2023-04-22T12:22:12.265Z,33.50
2023-04-22T12:24:46.891Z,35.70
2023-04-22T12:27:17.989Z,36.30
2023-04-22T12:29:54.753Z,33.20
2023-04-22T12:32:25.001Z,33.80
2023-04-22T12:34:55.302Z,31.00
2023-04-22T12:37:24.541Z,32.90
2023-04-22T12:39:53.488Z,31.70
2023-04-22T12:42:24.129Z,33.40
2023-04-22T12:44:52.950Z,31.60
2023-04-22T12:47:22.011Z,36.20
2023-04-22T12:49:52.237Z,37.40
2023-04-22T12:52:21.915Z,38.30
2023-04-22T12:54:51.456Z,37.00
2023-04-22T12:57:21.372Z,36.10
2023-04-22T12:59:53.728Z,36.10
2023-04-22T13:02:22.591Z,36.90
2023-04-22T13:04:51.777Z,38.20
2023-04-22T13:07:21.075Z,34.20
2023-04-22T13:09:49.761Z,34.70
2023-04-22T13:12:23.798Z,37.40
2023-04-22T13:14:54.872Z,37.20
2023-04-22T13:17:23.844Z,38.00
2023-04-22T13:19:52.516Z,35.40
2023-04-22T13:22:21.371Z,35.50
2023-04-22T13:24:50.433Z,35.50
2023-04-22T13:27:19.606Z,34.20
2023-04-22T13:29:48.811Z,35.90
2023-04-22T13:32:19.359Z,34.70
2023-04-22T13:34:48.586Z,33.20
2023-04-22T13:37:19.653Z,36.20
2023-04-22T13:39:48.368Z,37.20
2023-04-22T13:42:17.376Z,37.10
2023-04-22T13:44:46.054Z,32.90
2023-04-22T13:47:14.726Z,31.10
2023-04-22T13:49:44.943Z,32.30
2023-04-22T13:52:13.712Z,32.40
2023-04-22T13:54:42.389Z,33.30
2023-04-22T13:57:11.310Z,32.30
2023-04-22T13:59:40.418Z,32.60
2023-04-22T14:02:10.244Z,33.90
2023-04-22T14:04:40.750Z,33.60
2023-04-22T14:07:11.281Z,35.80
2023-04-22T14:09:41.460Z,36.80
2023-04-22T14:12:11.714Z,35.50
2023-04-22T14:14:41.854Z,35.00
2023-04-22T14:17:12.145Z,37.00
2023-04-22T14:19:41.315Z,38.20
2023-04-22T14:22:11.699Z,40.00
2023-04-22T14:24:40.569Z,40.70
2023-04-22T14:27:11.248Z,38.40
2023-04-22T14:29:41.914Z,38.70
2023-04-22T14:32:11.019Z,38.60
2023-04-22T14:34:40.640Z,37.50
2023-04-22T14:37:15.794Z,37.50
2023-04-22T14:39:46.427Z,41.10
2023-04-22T14:42:18.646Z,39.80
2023-04-22T14:44:47.642Z,38.50
2023-04-22T14:47:26.718Z,37.70
2023-04-22T14:49:56.025Z,37.10
2023-04-22T14:52:27.069Z,36.90
2023-04-22T14:54:55.687Z,35.40
2023-04-22T14:57:25.167Z,37.20
2023-04-22T14:59:53.912Z,37.50
2023-04-22T15:02:23.639Z,39.10
2023-04-22T15:04:52.731Z,39.60
2023-04-22T15:07:21.533Z,40.40
2023-04-22T15:09:51.601Z,40.30
2023-04-22T15:12:20.429Z,43.40
2023-04-22T15:14:49.874Z,43.60
2023-04-22T15:17:21.123Z,44.80
2023-04-22T15:19:50.384Z,44.40
2023-04-22T15:22:19.220Z,45.70
2023-04-22T15:24:48.504Z,45.60
2023-04-22T15:27:18.975Z,47.00
2023-04-22T15:29:48.264Z,47.30
2023-04-22T15:32:17.505Z,48.20
2023-04-22T15:34:46.344Z,47.90
2023-04-22T15:37:16.127Z,47.40
2023-04-22T15:39:45.076Z,48.90
2023-04-22T15:42:13.684Z,47.80
2023-04-22T15:44:44.028Z,48.40
2023-04-22T15:47:13.767Z,48.40
2023-04-22T15:49:42.559Z,47.60
2023-04-22T15:52:11.879Z,47.50
2023-04-22T15:54:41.151Z,50.20
2023-04-22T15:57:10.389Z,49.10
2023-04-22T15:59:39.896Z,49.10
2023-04-22T16:02:11.440Z,47.60
2023-04-22T16:04:40.995Z,49.40
2023-04-22T16:07:10.906Z,50.40
2023-04-22T16:09:40.268Z,49.90
2023-04-22T16:12:09.873Z,50.40
2023-04-22T16:14:38.656Z,50.50
2023-04-22T16:17:08.997Z,50.40
2023-04-22T16:19:40.129Z,48.90
2023-04-22T16:22:09.754Z,47.70
2023-04-22T16:24:38.383Z,48.90
2023-04-22T16:27:07.662Z,48.40
2023-04-22T16:29:37.021Z,50.20
2023-04-22T16:32:06.993Z,47.70
2023-04-22T16:34:35.968Z,49.50
2023-04-22T16:37:06.260Z,50.40
2023-04-22T16:39:34.850Z,50.20
2023-04-22T16:42:03.863Z,49.60
2023-04-22T16:44:32.428Z,51.00
2023-04-22T16:47:01.921Z,50.80
2023-04-22T16:49:30.498Z,51.80
2023-04-22T16:51:59.657Z,50.90
2023-04-22T16:54:30.259Z,52.60
2023-04-22T16:56:59.648Z,52.90
2023-04-22T16:59:29.914Z,52.80
2023-04-22T17:01:59.076Z,53.40
2023-04-22T17:04:28.479Z,53.10
2023-04-22T17:06:57.558Z,53.70
2023-04-22T17:09:26.782Z,53.00
2023-04-22T17:11:58.116Z,53.20
2023-04-22T17:14:27.313Z,54.50
2023-04-22T17:16:57.450Z,54.10
2023-04-22T17:19:26.152Z,54.90
2023-04-22T17:21:57.347Z,55.30
2023-04-22T17:24:26.349Z,55.90
2023-04-22T17:26:56.343Z,55.80
2023-04-22T17:29:27.849Z,55.70
2023-04-22T17:31:57.210Z,55.80
2023-04-22T17:34:26.173Z,56.20
2023-04-22T17:37:01.650Z,55.50
2023-04-22T17:39:33.169Z,55.50
2023-04-22T17:42:04.318Z,55.60
2023-04-22T17:44:34.062Z,55.90
2023-04-22T17:47:05.985Z,56.60
2023-04-22T17:49:36.515Z,57.30
2023-04-22T17:52:05.659Z,58.50
2023-04-22T17:54:34.808Z,61.10
2023-04-22T17:57:06.340Z,62.20
2023-04-22T17:59:35.866Z,63.10
2023-04-22T18:02:06.092Z,63.00
2023-04-22T18:04:37.949Z,64.40
2023-04-22T18:07:07.558Z,64.60
2023-04-22T18:09:37.051Z,66.90
2023-04-22T18:12:09.147Z,67.50
2023-04-22T18:14:39.081Z,67.80
2023-04-22T18:17:09.184Z,67.50
2023-04-22T18:19:38.508Z,70.30
2023-04-22T18:22:08.699Z,72.70
2023-04-22T18:24:38.288Z,73.50
2023-04-22T18:27:10.735Z,74.40
2023-04-22T18:29:40.776Z,74.90
2023-04-22T18:32:11.004Z,75.50
2023-04-22T18:34:40.964Z,74.20
2023-04-22T18:37:11.110Z,77.20
2023-04-22T18:39:39.886Z,80.40
2023-04-22T18:42:10.925Z,79.10
2023-04-22T18:44:41.072Z,81.80
2023-04-22T18:47:11.247Z,86.00
2023-04-22T18:49:40.770Z,89.60
2023-04-22T18:52:11.067Z,90.70
2023-04-22T18:54:41.190Z,90.50
2023-04-22T18:57:12.427Z,90.90
2023-04-22T18:59:42.718Z,91.30
2023-04-22T19:02:13.844Z,94.50
2023-04-22T19:04:43.093Z,93.30
2023-04-22T19:07:12.677Z,93.20
2023-04-22T19:09:41.985Z,93.00
2023-04-22T19:12:15.491Z,93.50
2023-04-22T19:14:45.129Z,93.10
2023-04-22T19:17:14.167Z,94.30
2023-04-22T19:19:43.689Z,95.30
2023-04-22T19:22:13.714Z,97.10
2023-04-22T19:24:43.372Z,99.80
2023-04-22T19:27:14.582Z,99.90
2023-04-22T19:29:51.456Z,99.90
2023-04-22T19:32:20.891Z,99.90
2023-04-22T19:34:50.765Z,99.90
2023-04-22T19:37:20.057Z,99.90
2023-04-22T19:39:49.209Z,99.90
2023-04-22T19:42:21.692Z,99.90
2023-04-22T19:44:51.310Z,99.90
2023-04-22T19:47:21.412Z,99.90
2023-04-22T19:49:51.076Z,99.90
2023-04-22T19:52:21.924Z,99.90
2023-04-22T19:54:56.026Z,99.90
2023-04-22T19:57:28.238Z,99.90
2023-04-22T20:00:00.755Z,99.90
2023-04-22T20:02:32.011Z,99.90
2023-04-22T20:05:03.193Z,99.90
2023-04-22T20:07:33.383Z,99.90
2023-04-22T20:10:04.146Z,99.90
2023-04-22T20:12:36.752Z,99.90
2023-04-22T20:15:08.518Z,99.90
2023-04-22T20:17:41.712Z,99.90
2023-04-22T20:20:15.650Z,99.90
2023-04-22T20:22:46.808Z,99.90
2023-04-22T20:25:19.740Z,99.90
2023-04-22T20:27:51.665Z,99.90
2023-04-22T20:30:21.120Z,99.90
2023-04-22T20:32:50.408Z,99.90
2023-04-22T20:35:20.830Z,99.90
2023-04-22T20:37:53.212Z,99.90
2023-04-22T20:40:24.804Z,99.90
2023-04-22T20:43:00.660Z,99.90
2023-04-22T20:45:29.983Z,99.90
2023-04-22T20:48:01.307Z,99.90
2023-04-22T20:50:33.792Z,99.90
2023-04-22T20:53:06.199Z,99.90
2023-04-22T20:55:37.202Z,99.90
2023-04-22T20:58:09.722Z,99.90
2023-04-22T21:00:39.372Z,99.90
2023-04-22T21:03:12.879Z,99.90
2023-04-22T21:05:46.483Z,99.90
2023-04-22T21:08:23.794Z,99.90
2023-04-22T21:10:55.308Z,99.90
2023-04-22T21:13:26.889Z,99.90
2023-04-22T21:16:00.864Z,99.90
2023-04-22T21:18:33.191Z,99.90
2023-04-22T21:21:04.565Z,99.90
2023-04-22T21:23:35.373Z,99.90
2023-04-22T21:26:05.819Z,99.90
2023-04-22T21:28:37.896Z,99.90
2023-04-22T21:31:08.532Z,99.90
2023-04-22T21:33:37.753Z,99.90
2023-04-22T21:36:07.111Z,99.90
2023-04-22T21:38:36.385Z,99.90
2023-04-22T21:41:06.563Z,99.90
2023-04-22T21:43:37.184Z,99.90
2023-04-22T21:46:09.662Z,99.90
2023-04-22T21:48:38.989Z,99.90
2023-04-22T21:51:08.560Z,99.90
2023-04-22T21:53:38.042Z,99.90
2023-04-22T21:56:08.081Z,99.90
2023-04-22T21:58:38.583Z,99.90
2023-04-22T22:01:08.677Z,99.90
2023-04-22T22:03:38.965Z,99.90
2023-04-22T22:06:08.911Z,99.90
2023-04-22T22:08:39.328Z,99.90
2023-04-22T22:11:14.510Z,99.90
2023-04-22T22:13:52.128Z,99.90
2023-04-22T22:16:21.693Z,99.90
2023-04-22T22:18:51.281Z,99.90
2023-04-22T22:21:20.580Z,99.90
2023-04-22T22:23:49.734Z,99.90
2023-04-22T22:26:19.310Z,99.90
2023-04-22T22:28:48.141Z,99.90
2023-04-22T22:31:19.427Z,99.90
2023-04-22T22:33:48.274Z,99.90
2023-04-22T22:36:17.694Z,99.90
2023-04-22T22:38:50.013Z,99.90
2023-04-22T22:41:19.546Z,99.90
2023-04-22T22:43:48.148Z,99.90
2023-04-22T22:46:21.459Z,99.90
2023-04-22T22:48:50.533Z,99.90
2023-04-22T22:51:19.528Z,99.90
2023-04-22T22:53:49.002Z,99.90
2023-04-22T22:56:21.519Z,99.90
2023-04-22T22:58:50.960Z,99.90
2023-04-22T23:01:21.808Z,99.90
2023-04-22T23:03:51.800Z,99.90
2023-04-22T23:06:20.833Z,99.90
2023-04-22T23:08:49.646Z,99.90
2023-04-22T23:11:18.892Z,99.90
2023-04-22T23:13:48.560Z,99.90
2023-04-22T23:16:19.145Z,99.90
2023-04-22T23:18:50.484Z,99.90
2023-04-22T23:21:21.303Z,99.90
2023-04-22T23:23:51.949Z,99.90
2023-04-22T23:26:21.081Z,99.90
2023-04-22T23:28:50.999Z,99.90
2023-04-22T23:31:21.704Z,99.90
2023-04-22T23:33:57.493Z,99.90
2023-04-22T23:36:28.199Z,99.90
2023-04-22T23:38:58.049Z,99.90
2023-04-22T23:41:27.833Z,99.90
2023-04-22T23:43:59.326Z,99.90
2023-04-22T23:46:30.312Z,99.90
2023-04-22T23:49:01.892Z,99.90
2023-04-22T23:51:31.414Z,99.90
2023-04-22T23:54:00.940Z,99.90
2023-04-22T23:56:30.966Z,99.90
2023-04-22T23:59:03.178Z,99.90
